Terminal Aerodrome Forecast
Issued by NWS Cleveland, OH

Home | Current Version | Previous Version | Graphics & Text | Print | Product List | Glossary On
Versions: 1 2 3 4 5 6 7 8 9 10 11 12 13 14 15 16 17 18 19 20 21 22 23 24 25 26 27 28 29 30 31 32
000
FTUS41 KCLE 260500
TAFCLE
TAF
KCLE 260529Z 2606/2712 21006KT P6SM SCT120 BKN250
     FM261200 33009KT 2SM -RASN BR OVC008
     FM261300 03005KT 1 1/2SM -SN BR OVC008
     FM261800 32009KT P6SM OVC012
     FM262100 31009KT P6SM OVC050
     FM270000 27008KT P6SM OVC050
     FM270300 29010G15KT P6SM OVC050=

USA.gov is the U.S. government's official web portal to all federal, state and local government web resources and services.